createdAt,value
2018-09-15T00:01:27.430Z,85.71
2018-09-15T00:02:05.570Z,85.25
2018-09-15T00:02:43.649Z,85.68
2018-09-15T00:03:21.860Z,85.74
2018-09-15T00:04:00.083Z,85.57
2018-09-15T00:04:38.367Z,85.88
2018-09-15T00:05:16.722Z,85.25
2018-09-15T00:05:55.421Z,85.00
2018-09-15T00:06:33.697Z,86.56
2018-09-15T00:07:12.203Z,85.75
2018-09-15T00:07:50.768Z,86.25
2018-09-15T00:08:29.137Z,86.22
2018-09-15T00:09:07.878Z,85.61
2018-09-15T00:09:46.279Z,85.39
2018-09-15T00:10:24.699Z,86.33
2018-09-15T00:11:02.978Z,85.35
2018-09-15T00:11:41.272Z,86.29
2018-09-15T00:12:19.519Z,85.86
2018-09-15T00:12:57.725Z,85.44
2018-09-15T00:13:35.875Z,86.05
2018-09-15T00:14:14.350Z,85.35
2018-09-15T00:14:52.560Z,85.05
2018-09-15T00:15:30.725Z,86.13
2018-09-15T00:16:08.930Z,85.14
2018-09-15T00:16:46.999Z,85.17
2018-09-15T00:17:25.333Z,85.22
2018-09-15T00:18:05.736Z,84.94
2018-09-15T00:18:45.078Z,84.99
2018-09-15T00:19:23.383Z,84.75
2018-09-15T00:20:01.619Z,85.88
2018-09-15T00:20:40.643Z,84.80
2018-09-15T00:21:18.802Z,85.63
2018-09-15T00:21:56.836Z,85.81
2018-09-15T00:22:35.970Z,85.46
2018-09-15T00:23:15.601Z,84.66
2018-09-15T00:23:53.733Z,85.23
2018-09-15T00:24:31.774Z,85.58
2018-09-15T00:25:10.093Z,84.83
2018-09-15T00:25:48.270Z,84.70
2018-09-15T00:26:26.469Z,85.78
2018-09-15T00:27:04.766Z,85.59
2018-09-15T00:27:42.729Z,85.81
2018-09-15T00:28:20.864Z,86.04
2018-09-15T00:28:59.021Z,85.49
2018-09-15T00:29:37.179Z,85.01
2018-09-15T00:30:15.416Z,85.67
2018-09-15T00:30:53.645Z,85.67
2018-09-15T00:31:32.167Z,85.42
2018-09-15T00:32:10.442Z,85.56
2018-09-15T00:32:48.721Z,85.59
2018-09-15T00:33:26.953Z,85.07
2018-09-15T00:34:05.160Z,84.61
2018-09-15T00:34:43.439Z,85.56
2018-09-15T00:35:21.569Z,85.14
2018-09-15T00:35:59.819Z,85.67
2018-09-15T00:36:38.119Z,85.88
2018-09-15T00:37:16.387Z,85.38
2018-09-15T00:37:54.774Z,84.87
2018-09-15T00:38:32.978Z,85.37
2018-09-15T00:39:14.370Z,84.54
2018-09-15T00:39:52.613Z,84.73
2018-09-15T00:40:31.095Z,85.05
2018-09-15T00:41:09.214Z,85.47
2018-09-15T00:41:47.241Z,84.80
2018-09-15T00:42:25.181Z,85.22
2018-09-15T00:43:03.283Z,85.67
2018-09-15T00:43:41.190Z,84.29
2018-09-15T00:44:19.054Z,85.44
2018-09-15T00:44:57.051Z,85.41
2018-09-15T00:45:35.039Z,85.51
2018-09-15T00:46:13.082Z,85.67
2018-09-15T00:46:50.987Z,85.55
2018-09-15T00:47:29.007Z,85.38
2018-09-15T00:48:07.037Z,85.29
2018-09-15T00:48:45.815Z,85.31
2018-09-15T00:49:23.743Z,85.44
2018-09-15T00:50:01.655Z,85.00
2018-09-15T00:50:39.587Z,84.69
2018-09-15T00:51:17.418Z,84.59
2018-09-15T00:51:55.420Z,84.74
2018-09-15T00:52:33.392Z,85.33
2018-09-15T00:53:11.323Z,84.44
2018-09-15T00:53:49.164Z,84.65
2018-09-15T00:54:27.067Z,84.67
2018-09-15T00:55:05.060Z,84.81
2018-09-15T00:55:43.058Z,85.07
2018-09-15T00:56:20.924Z,84.75
2018-09-15T00:56:58.719Z,84.07
2018-09-15T00:57:36.599Z,85.19
2018-09-15T00:58:14.363Z,84.29
2018-09-15T00:58:52.401Z,84.16
2018-09-15T00:59:30.240Z,84.29
2018-09-15T01:00:09.090Z,84.78
2018-09-15T01:00:47.066Z,85.04
2018-09-15T01:01:26.126Z,85.16
2018-09-15T01:02:04.040Z,83.91
2018-09-15T01:02:41.984Z,83.66
2018-09-15T01:03:19.950Z,83.79
2018-09-15T01:03:57.889Z,83.77
2018-09-15T01:04:35.894Z,83.28
2018-09-15T01:05:13.818Z,84.47
2018-09-15T01:05:51.830Z,83.61
2018-09-15T01:06:29.823Z,84.27
2018-09-15T01:07:07.734Z,84.06
2018-09-15T01:07:45.609Z,83.73
2018-09-15T01:08:23.597Z,83.33
2018-09-15T01:09:02.659Z,83.89
2018-09-15T01:09:40.585Z,83.28
2018-09-15T01:10:18.632Z,82.93
2018-09-15T01:10:56.585Z,83.58
2018-09-15T01:11:34.591Z,83.60
2018-09-15T01:12:12.352Z,83.84
2018-09-15T01:12:50.306Z,83.14
2018-09-15T01:13:28.365Z,83.17
2018-09-15T01:14:06.300Z,82.38
2018-09-15T01:14:44.413Z,82.68
2018-09-15T01:15:22.269Z,82.24
2018-09-15T01:16:00.819Z,83.05
2018-09-15T01:16:38.885Z,82.78
2018-09-15T01:17:16.880Z,82.24
2018-09-15T01:17:54.742Z,81.99
2018-09-15T01:18:32.698Z,82.21
2018-09-15T01:19:10.707Z,81.84
2018-09-15T01:19:48.733Z,83.27
2018-09-15T01:20:26.693Z,82.02
2018-09-15T01:21:04.648Z,82.59
2018-09-15T01:21:42.460Z,81.31
2018-09-15T01:22:20.316Z,82.38
2018-09-15T01:22:58.264Z,81.06
2018-09-15T01:23:36.375Z,81.20
2018-09-15T01:24:14.556Z,80.40
2018-09-15T01:24:53.347Z,81.23
2018-09-15T01:25:31.273Z,80.98
2018-09-15T01:26:09.201Z,80.34
2018-09-15T01:26:47.239Z,79.89
2018-09-15T01:27:25.174Z,80.29
2018-09-15T01:28:03.124Z,80.39
2018-09-15T01:28:41.007Z,80.42
2018-09-15T01:29:18.955Z,80.22
2018-09-15T01:29:56.831Z,80.04
2018-09-15T01:30:34.907Z,80.30
2018-09-15T01:31:13.019Z,80.07
2018-09-15T01:31:50.936Z,79.00
2018-09-15T01:32:30.009Z,78.62
2018-09-15T01:33:08.002Z,79.82
2018-09-15T01:33:46.750Z,79.45
2018-09-15T01:34:24.584Z,78.19
2018-09-15T01:35:02.598Z,79.43
2018-09-15T01:35:40.406Z,78.27
2018-09-15T01:36:18.320Z,78.09
2018-09-15T01:36:56.155Z,77.67
2018-09-15T01:37:34.027Z,79.18
2018-09-15T01:38:11.953Z,79.16
2018-09-15T01:38:49.951Z,78.91
2018-09-15T01:39:27.873Z,78.20
2018-09-15T01:40:07.795Z,78.90
2018-09-15T01:40:45.627Z,78.21
2018-09-15T01:41:23.448Z,78.74
2018-09-15T01:42:01.418Z,77.83
2018-09-15T01:42:39.444Z,77.59
2018-09-15T01:43:17.312Z,77.59
2018-09-15T01:43:55.134Z,78.21
2018-09-15T01:44:33.074Z,77.58
2018-09-15T01:45:11.003Z,78.29
2018-09-15T01:45:48.899Z,76.86
2018-09-15T01:46:26.868Z,77.49
2018-09-15T01:47:04.813Z,76.70
2018-09-15T01:47:42.709Z,77.59
2018-09-15T01:48:20.629Z,77.59
2018-09-15T01:48:58.591Z,77.37
2018-09-15T01:49:37.343Z,77.83
2018-09-15T01:50:16.112Z,76.89
2018-09-15T01:50:53.964Z,78.11
2018-09-15T01:51:32.021Z,76.97
2018-09-15T01:52:10.059Z,76.17
2018-09-15T01:52:48.114Z,77.34
2018-09-15T01:53:26.253Z,76.93
2018-09-15T01:54:04.755Z,75.74
2018-09-15T01:54:42.721Z,76.31
2018-09-15T01:55:20.588Z,76.51
2018-09-15T01:55:58.560Z,75.03
2018-09-15T01:56:36.624Z,75.31
2018-09-15T01:57:14.814Z,75.95
2018-09-15T01:57:52.726Z,75.61
2018-09-15T01:58:30.754Z,76.03
2018-09-15T01:59:09.096Z,75.93
2018-09-15T01:59:46.995Z,76.37
2018-09-15T02:00:25.843Z,76.66
2018-09-15T02:01:03.986Z,75.20
2018-09-15T02:01:41.915Z,76.05
2018-09-15T02:02:19.821Z,75.13
2018-09-15T02:02:57.757Z,73.81
2018-09-15T02:03:35.764Z,73.16
2018-09-15T02:04:13.898Z,74.11
2018-09-15T02:04:52.166Z,74.14
2018-09-15T02:05:30.184Z,73.85
2018-09-15T02:06:08.100Z,73.14
2018-09-15T02:06:46.032Z,72.77
2018-09-15T02:07:23.857Z,71.54
2018-09-15T02:08:03.660Z,72.08
2018-09-15T02:08:41.779Z,71.48
2018-09-15T02:09:19.713Z,70.88
2018-09-15T02:09:57.939Z,70.25
2018-09-15T02:10:35.955Z,69.50
2018-09-15T02:11:13.863Z,69.00
2018-09-15T02:11:51.982Z,68.71
2018-09-15T02:12:29.887Z,68.49
2018-09-15T02:13:07.848Z,68.09
2018-09-15T02:13:45.787Z,67.68
2018-09-15T02:14:23.731Z,67.26
2018-09-15T02:16:05.738Z,66.68
2018-09-15T02:16:43.649Z,66.47
2018-09-15T02:17:21.560Z,66.13
2018-09-15T02:17:59.458Z,66.00
2018-09-15T02:18:37.438Z,65.75
2018-09-15T02:19:15.427Z,66.70
2018-09-15T02:19:53.222Z,66.64
2018-09-15T02:20:31.380Z,66.70
2018-09-15T02:21:09.266Z,67.14
2018-09-15T02:21:47.206Z,67.51
2018-09-15T02:22:25.407Z,66.77
2018-09-15T02:23:03.443Z,67.11
2018-09-15T02:23:41.540Z,67.14
2018-09-15T02:24:20.333Z,67.40
2018-09-15T02:24:58.266Z,67.52
2018-09-15T02:25:36.577Z,68.00
2018-09-15T02:26:14.547Z,67.97
2018-09-15T02:26:52.477Z,67.78
2018-09-15T02:27:30.531Z,67.52
2018-09-15T02:28:08.467Z,67.47
2018-09-15T02:28:46.664Z,66.92
2018-09-15T02:29:24.540Z,67.38
2018-09-15T02:30:03.698Z,66.76
2018-09-15T02:30:41.586Z,66.35
2018-09-15T02:31:19.544Z,66.17
2018-09-15T02:31:57.363Z,66.58
2018-09-15T02:32:35.262Z,66.51
2018-09-15T02:33:13.062Z,67.01
2018-09-15T02:33:51.016Z,67.14
2018-09-15T02:34:28.986Z,67.29
2018-09-15T02:35:12.943Z,67.06
2018-09-15T02:35:50.802Z,67.03
2018-09-15T02:36:28.893Z,67.04
2018-09-15T02:37:06.857Z,66.95
2018-09-15T02:37:44.847Z,67.38
2018-09-15T02:38:22.789Z,67.10
2018-09-15T02:39:00.696Z,67.24
2018-09-15T02:39:38.531Z,67.22
2018-09-15T02:40:16.639Z,67.70
2018-09-15T02:40:54.662Z,66.80
2018-09-15T02:41:32.514Z,66.58
2018-09-15T02:42:11.614Z,66.87
2018-09-15T02:42:49.449Z,66.75
2018-09-15T02:43:27.393Z,66.95
2018-09-15T02:44:05.289Z,66.74
2018-09-15T02:44:43.338Z,66.25
2018-09-15T02:45:21.360Z,66.48
2018-09-15T02:45:59.629Z,66.47
2018-09-15T02:46:37.543Z,67.51
2018-09-15T02:47:15.459Z,67.14
2018-09-15T02:47:53.414Z,66.52
2018-09-15T02:48:31.351Z,67.47
2018-09-15T02:49:09.367Z,66.94
2018-09-15T02:49:47.329Z,67.07
2018-09-15T02:50:25.461Z,67.29
2018-09-15T02:51:03.438Z,66.92
2018-09-15T02:51:41.430Z,67.23
2018-09-15T02:52:19.364Z,67.04
2018-09-15T02:52:57.231Z,66.63
2018-09-15T02:53:35.081Z,66.83
2018-09-15T02:54:13.088Z,66.87
2018-09-15T02:54:51.376Z,67.01
2018-09-15T02:55:29.937Z,67.04
2018-09-15T02:56:07.897Z,66.62
2018-09-15T02:56:45.945Z,66.62
2018-09-15T02:57:24.687Z,67.12
2018-09-15T02:58:02.793Z,67.55
2018-09-15T02:58:40.749Z,67.78
2018-09-15T02:59:18.910Z,67.61
2018-09-15T02:59:56.985Z,67.26
2018-09-15T03:00:35.575Z,67.33
2018-09-15T03:01:13.495Z,67.11
2018-09-15T03:01:51.632Z,66.77
2018-09-15T03:02:29.753Z,66.22
2018-09-15T03:03:07.971Z,66.37
2018-09-15T03:03:47.735Z,66.22
2018-09-15T03:04:27.559Z,65.98
2018-09-15T03:05:05.981Z,65.91
2018-09-15T03:05:44.283Z,65.74
2018-09-15T03:06:22.725Z,65.89
2018-09-15T03:07:01.185Z,65.53
2018-09-15T03:07:40.231Z,66.13
2018-09-15T03:08:19.207Z,65.82
2018-09-15T03:08:57.762Z,65.05
2018-09-15T03:09:36.320Z,64.08
2018-09-15T03:10:14.677Z,63.71
2018-09-15T03:10:53.253Z,62.84
2018-09-15T03:11:31.535Z,62.46
2018-09-15T03:12:10.198Z,61.82
2018-09-15T03:12:49.924Z,60.71
2018-09-15T03:13:28.235Z,60.41
2018-09-15T03:14:06.605Z,60.06
2018-09-15T03:14:44.895Z,59.97
2018-09-15T03:15:23.157Z,60.17
2018-09-15T03:16:01.234Z,60.92
2018-09-15T03:16:39.688Z,61.32
2018-09-15T03:17:18.529Z,61.35
2018-09-15T03:17:56.692Z,61.66
2018-09-15T03:18:34.742Z,61.20
2018-09-15T03:19:12.897Z,60.72
2018-09-15T03:19:52.133Z,60.72
2018-09-15T03:20:30.380Z,62.36
2018-09-15T03:21:08.989Z,62.18
2018-09-15T03:21:47.113Z,62.36
2018-09-15T03:22:24.992Z,61.37
2018-09-15T03:23:02.888Z,61.37
2018-09-15T03:23:40.922Z,60.73
2018-09-15T03:24:18.759Z,60.16
2018-09-15T03:24:56.692Z,60.51
2018-09-15T03:25:34.549Z,59.08
2018-09-15T03:26:12.486Z,59.11
2018-09-15T03:26:50.455Z,58.82
2018-09-15T03:27:28.304Z,59.56
2018-09-15T03:28:06.171Z,59.86
2018-09-15T03:28:44.386Z,59.46
2018-09-15T03:29:22.348Z,58.75
2018-09-15T03:30:00.347Z,58.91
2018-09-15T03:30:38.119Z,58.76
2018-09-15T03:31:15.939Z,58.38
2018-09-15T03:31:53.889Z,57.62
2018-09-15T03:32:31.930Z,58.38
2018-09-15T03:33:09.812Z,58.92
2018-09-15T03:33:48.082Z,58.73
2018-09-15T03:34:25.899Z,58.93
2018-09-15T03:35:03.863Z,59.00
2018-09-15T03:35:41.764Z,59.84
2018-09-15T03:36:19.756Z,59.18
2018-09-15T03:36:57.741Z,58.90
2018-09-15T03:37:35.636Z,59.43
2018-09-15T03:38:13.712Z,59.97
2018-09-15T03:38:51.900Z,59.99
2018-09-15T03:39:29.835Z,59.56
2018-09-15T03:40:07.848Z,59.42
2018-09-15T03:40:45.751Z,60.04
2018-09-15T03:41:23.766Z,59.32
2018-09-15T03:42:01.919Z,59.15
2018-09-15T03:42:39.986Z,60.70
2018-09-15T03:43:19.759Z,60.42
2018-09-15T03:43:57.693Z,59.98
2018-09-15T03:44:35.588Z,59.17
2018-09-15T03:45:13.598Z,59.70
2018-09-15T03:45:52.362Z,59.25
2018-09-15T03:46:31.375Z,57.92
2018-09-15T03:47:09.647Z,58.18
2018-09-15T03:47:47.779Z,58.52
2018-09-15T03:48:25.775Z,58.42
2018-09-15T03:49:03.705Z,59.09
2018-09-15T03:49:41.491Z,59.79
2018-09-15T03:50:19.624Z,60.89
2018-09-15T03:50:57.523Z,60.80
2018-09-15T03:51:35.431Z,61.32
2018-09-15T03:52:13.295Z,61.68
2018-09-15T03:52:51.136Z,61.66
2018-09-15T03:53:29.116Z,63.28
2018-09-15T03:54:07.113Z,63.00
2018-09-15T03:54:44.998Z,63.40
2018-09-15T03:55:23.016Z,62.87
2018-09-15T03:56:01.244Z,63.78
2018-09-15T03:56:39.216Z,63.95
2018-09-15T03:57:17.185Z,63.96
2018-09-15T03:57:55.156Z,64.15
2018-09-15T03:58:33.069Z,64.64
2018-09-15T03:59:11.842Z,64.94
2018-09-15T03:59:49.824Z,65.33
2018-09-15T04:00:27.811Z,65.37
2018-09-15T04:01:05.848Z,66.04
2018-09-15T04:01:44.435Z,66.48
2018-09-15T04:02:22.353Z,66.97
2018-09-15T04:03:00.393Z,67.07
2018-09-15T04:03:38.407Z,67.50
2018-09-15T04:04:16.854Z,67.81
2018-09-15T04:04:54.959Z,67.40
2018-09-15T04:05:32.874Z,67.55
2018-09-15T04:06:10.897Z,68.09
2018-09-15T04:06:49.018Z,68.18
2018-09-15T04:07:26.845Z,68.62
2018-09-15T04:08:04.762Z,68.37
2018-09-15T04:08:42.769Z,67.81
2018-09-15T04:09:20.694Z,68.49
2018-09-15T04:09:58.569Z,68.56
2018-09-15T04:10:36.478Z,68.78
2018-09-15T04:11:17.250Z,68.89
2018-09-15T04:11:55.272Z,69.23
2018-09-15T04:12:33.339Z,69.51
2018-09-15T04:13:11.403Z,70.01
2018-09-15T04:13:49.513Z,70.46
2018-09-15T04:14:27.566Z,71.18
2018-09-15T04:15:05.612Z,71.88
2018-09-15T04:15:43.715Z,72.26
2018-09-15T04:16:21.572Z,72.69
2018-09-15T04:16:59.615Z,72.81
2018-09-15T04:17:37.469Z,73.30
2018-09-15T04:18:19.904Z,73.65
2018-09-15T04:18:58.133Z,73.62
2018-09-15T04:19:36.122Z,73.13
2018-09-15T04:20:15.038Z,74.65
2018-09-15T04:20:52.980Z,74.94
2018-09-15T04:21:30.874Z,74.43
2018-09-15T04:22:08.736Z,74.36
2018-09-15T04:22:46.885Z,74.52
2018-09-15T04:23:24.868Z,75.61
2018-09-15T04:24:03.740Z,75.09
2018-09-15T04:24:41.790Z,76.44
2018-09-15T04:25:19.813Z,76.04
2018-09-15T04:25:57.765Z,75.22
2018-09-15T04:26:36.443Z,76.88
2018-09-15T04:27:14.384Z,76.38
2018-09-15T04:27:52.339Z,77.55
2018-09-15T04:28:30.220Z,76.90
2018-09-15T04:29:08.173Z,78.24
2018-09-15T04:29:46.347Z,78.61
2018-09-15T04:30:24.403Z,77.54
2018-09-15T04:31:02.205Z,78.03
2018-09-15T04:31:40.188Z,77.97
2018-09-15T04:32:19.242Z,78.26
2018-09-15T04:32:57.115Z,79.38
2018-09-15T04:33:35.026Z,79.51
2018-09-15T04:34:13.038Z,80.22
2018-09-15T04:34:51.002Z,80.54
2018-09-15T04:35:29.968Z,79.16
2018-09-15T04:36:07.927Z,79.64
2018-09-15T04:36:45.906Z,79.88
2018-09-15T04:37:23.885Z,80.16
2018-09-15T04:38:01.858Z,79.65
2018-09-15T04:38:39.901Z,79.98
2018-09-15T04:39:18.018Z,80.62
2018-09-15T04:39:56.832Z,80.09
2018-09-15T04:40:34.746Z,79.95
2018-09-15T04:41:12.831Z,81.16
2018-09-15T04:41:50.732Z,80.49
2018-09-15T04:42:28.740Z,81.15
2018-09-15T04:43:06.700Z,80.11
2018-09-15T04:43:44.613Z,80.91
2018-09-15T04:45:05.705Z,81.41
2018-09-15T04:45:43.579Z,81.54
2018-09-15T04:46:21.851Z,81.87
2018-09-15T04:46:59.923Z,82.70
2018-09-15T04:47:37.776Z,81.20
2018-09-15T04:48:16.606Z,81.32
2018-09-15T04:48:54.435Z,82.16
2018-09-15T04:49:32.255Z,81.44
2018-09-15T04:50:10.114Z,81.36
2018-09-15T04:50:48.091Z,81.48
2018-09-15T04:51:26.318Z,81.67
2018-09-15T04:52:04.135Z,81.70
2018-09-15T04:52:42.070Z,82.00
2018-09-15T04:53:20.837Z,82.21
2018-09-15T04:53:58.819Z,81.54
2018-09-15T04:54:36.681Z,81.22
2018-09-15T04:55:14.652Z,82.24
2018-09-15T04:55:52.613Z,81.57
2018-09-15T04:56:30.858Z,81.37
2018-09-15T04:57:08.814Z,81.54
2018-09-15T04:57:46.803Z,82.47
2018-09-15T04:58:24.792Z,81.59
2018-09-15T04:59:02.608Z,81.61
2018-09-15T04:59:40.575Z,81.72
2018-09-15T05:00:18.570Z,81.60
2018-09-15T05:00:56.610Z,82.29
2018-09-15T05:01:35.378Z,82.58
2018-09-15T05:02:13.374Z,82.58
2018-09-15T05:02:51.420Z,82.96
2018-09-15T05:03:29.577Z,81.72
2018-09-15T05:04:07.601Z,81.20
2018-09-15T05:04:45.495Z,80.82
2018-09-15T05:05:23.327Z,80.95
2018-09-15T05:06:01.261Z,81.63
2018-09-15T05:06:39.261Z,81.66
2018-09-15T05:07:17.321Z,81.22
2018-09-15T05:07:56.081Z,81.10
2018-09-15T05:08:34.254Z,81.36
2018-09-15T05:09:14.554Z,82.18
2018-09-15T05:09:52.712Z,81.34
2018-09-15T05:10:30.709Z,81.97
2018-09-15T05:11:08.594Z,81.61
2018-09-15T05:11:46.565Z,81.65
2018-09-15T05:12:24.670Z,81.32
2018-09-15T05:13:02.747Z,82.10
2018-09-15T05:13:40.622Z,82.02
2018-09-15T05:14:18.652Z,81.73
2018-09-15T05:14:56.515Z,80.81
2018-09-15T05:15:34.477Z,81.74
2018-09-15T05:16:12.351Z,80.66
2018-09-15T05:16:50.253Z,81.00
2018-09-15T05:17:28.136Z,81.51
2018-09-15T05:18:06.116Z,81.02
2018-09-15T05:18:43.902Z,81.31
2018-09-15T05:19:21.834Z,81.22
2018-09-15T05:19:59.708Z,81.56
2018-09-15T05:20:37.568Z,81.48
2018-09-15T05:21:15.481Z,80.44
2018-09-15T05:21:53.482Z,81.71
2018-09-15T05:22:31.303Z,81.72
2018-09-15T05:23:09.804Z,80.63
2018-09-15T05:23:47.689Z,81.43
2018-09-15T05:24:26.329Z,81.41
2018-09-15T05:25:04.267Z,81.09
2018-09-15T05:25:42.381Z,81.39
2018-09-15T05:26:20.346Z,81.06
2018-09-15T05:26:58.313Z,79.98
2018-09-15T05:27:36.466Z,80.98
2018-09-15T05:28:14.270Z,81.19
2018-09-15T05:28:52.142Z,81.24
2018-09-15T05:29:30.172Z,80.35
2018-09-15T05:30:08.450Z,81.06
2018-09-15T05:30:46.253Z,81.20
2018-09-15T05:31:24.227Z,80.70
2018-09-15T05:32:02.928Z,80.61
2018-09-15T05:32:40.772Z,81.23
2018-09-15T05:33:18.704Z,80.78
2018-09-15T05:33:56.716Z,80.55
2018-09-15T05:34:34.606Z,81.48
2018-09-15T05:35:12.515Z,81.51
2018-09-15T05:35:50.419Z,81.45
2018-09-15T05:36:28.967Z,81.45
2018-09-15T05:37:06.910Z,81.60
2018-09-15T05:37:44.728Z,81.01
2018-09-15T05:38:22.820Z,81.48
2018-09-15T05:39:00.724Z,82.04
2018-09-15T05:39:38.628Z,81.94
2018-09-15T05:40:17.464Z,81.15
2018-09-15T05:40:56.435Z,80.90
2018-09-15T05:41:34.269Z,80.75
2018-09-15T05:42:12.258Z,80.58
2018-09-15T05:42:50.205Z,81.58
2018-09-15T05:43:28.510Z,80.57
2018-09-15T05:44:06.470Z,81.28
2018-09-15T05:44:44.349Z,81.93
2018-09-15T05:45:22.346Z,81.33
2018-09-15T05:46:00.177Z,80.68
2018-09-15T05:46:38.015Z,80.72
2018-09-15T05:47:15.906Z,80.78
2018-09-15T05:47:56.088Z,80.23
2018-09-15T05:48:34.084Z,80.16
2018-09-15T05:49:12.405Z,81.10
2018-09-15T05:49:50.315Z,81.58
2018-09-15T05:50:28.317Z,80.23
2018-09-15T05:51:06.159Z,80.17
2018-09-15T05:51:43.958Z,80.31
2018-09-15T05:52:21.958Z,79.89
2018-09-15T05:52:59.989Z,80.44
2018-09-15T05:53:38.298Z,80.54
2018-09-15T05:54:16.406Z,80.31
2018-09-15T05:54:54.558Z,79.43
2018-09-15T05:55:32.538Z,79.98
2018-09-15T05:56:10.435Z,79.38
2018-09-15T05:56:48.382Z,79.89
2018-09-15T05:57:26.340Z,79.86
2018-09-15T05:58:06.155Z,80.77
2018-09-15T05:58:44.211Z,79.53
2018-09-15T05:59:22.268Z,79.70
2018-09-15T06:00:00.104Z,80.27
2018-09-15T06:00:38.154Z,80.78
2018-09-15T06:01:16.249Z,80.55
2018-09-15T06:01:54.203Z,79.79
2018-09-15T06:02:32.083Z,79.89
2018-09-15T06:03:09.979Z,79.30
2018-09-15T06:03:48.009Z,79.14
2018-09-15T06:04:26.032Z,78.29
2018-09-15T06:05:03.847Z,79.23
2018-09-15T06:05:41.812Z,79.07
2018-09-15T06:06:20.062Z,78.46
2018-09-15T06:06:58.126Z,79.12
2018-09-15T06:07:36.204Z,77.86
2018-09-15T06:08:14.236Z,78.12
2018-09-15T06:08:52.324Z,79.29
2018-09-15T06:09:30.129Z,78.39
2018-09-15T06:10:08.250Z,77.22
2018-09-15T06:10:46.499Z,78.45
2018-09-15T06:11:24.418Z,77.95
2018-09-15T06:12:02.556Z,78.63
2018-09-15T06:12:40.548Z,77.51
2018-09-15T06:13:18.499Z,77.24
2018-09-15T06:13:56.538Z,78.59
2018-09-15T06:14:35.416Z,77.21
2018-09-15T06:15:13.472Z,76.11
2018-09-15T06:15:51.621Z,76.26
2018-09-15T06:16:29.484Z,76.48
2018-09-15T06:17:07.265Z,76.18
2018-09-15T06:17:45.142Z,77.20
2018-09-15T06:18:23.065Z,76.55
2018-09-15T06:19:00.877Z,77.70
2018-09-15T06:19:39.695Z,77.15
2018-09-15T06:20:17.472Z,74.95
2018-09-15T06:20:55.327Z,74.81
2018-09-15T06:21:33.547Z,75.70
2018-09-15T06:22:11.349Z,76.49
2018-09-15T06:22:49.224Z,75.82
2018-09-15T06:23:27.050Z,76.21
2018-09-15T06:24:05.211Z,76.11
2018-09-15T06:24:43.089Z,75.66
2018-09-15T06:25:20.933Z,75.69
2018-09-15T06:25:58.931Z,76.98
2018-09-15T06:26:37.613Z,75.99
2018-09-15T06:27:15.590Z,74.95
2018-09-15T06:27:53.810Z,75.62
2018-09-15T06:28:31.866Z,75.32
2018-09-15T06:29:09.847Z,74.82
2018-09-15T06:29:47.836Z,74.77
2018-09-15T06:30:25.798Z,73.89
2018-09-15T06:31:03.864Z,73.99
2018-09-15T06:31:42.006Z,74.21
2018-09-15T06:32:19.872Z,74.05
2018-09-15T06:32:57.696Z,73.70
2018-09-15T06:33:35.768Z,74.22
2018-09-15T06:34:13.633Z,72.81
2018-09-15T06:34:52.623Z,72.91
2018-09-15T06:35:30.848Z,73.33
2018-09-15T06:36:08.601Z,73.21
2018-09-15T06:36:46.468Z,73.20
2018-09-15T06:37:24.455Z,73.60
2018-09-15T06:38:02.287Z,73.47
2018-09-15T06:38:40.185Z,74.19
2018-09-15T06:39:18.147Z,72.97
2018-09-15T06:39:56.038Z,73.78
2018-09-15T06:40:34.141Z,74.36
2018-09-15T06:41:12.158Z,73.57
2018-09-15T06:41:50.046Z,74.10
2018-09-15T06:42:28.026Z,74.23
2018-09-15T06:43:06.128Z,73.33
2018-09-15T06:43:44.031Z,74.96
2018-09-15T06:44:21.887Z,74.09
2018-09-15T06:45:00.179Z,74.16
2018-09-15T06:45:38.198Z,74.36
2018-09-15T06:46:16.866Z,74.41
2018-09-15T06:46:54.682Z,74.35
2018-09-15T06:47:32.751Z,74.62
2018-09-15T06:48:10.829Z,74.51
2018-09-15T06:48:48.822Z,74.68
2018-09-15T06:49:26.731Z,75.10
2018-09-15T06:50:04.787Z,74.83
2018-09-15T06:50:42.672Z,74.72
2018-09-15T06:51:20.626Z,75.18
2018-09-15T06:51:58.590Z,74.88
2018-09-15T06:52:36.426Z,74.33
2018-09-15T06:53:14.463Z,74.89
2018-09-15T06:53:52.539Z,75.42
2018-09-15T06:54:30.589Z,75.41
2018-09-15T06:55:08.552Z,75.74
2018-09-15T06:55:46.575Z,75.72
2018-09-15T06:56:24.596Z,76.12
2018-09-15T06:57:02.522Z,75.40
2018-09-15T06:57:40.541Z,74.60
2018-09-15T06:58:18.379Z,75.60
2018-09-15T06:58:56.794Z,75.33
2018-09-15T06:59:34.760Z,75.32
2018-09-15T07:00:17.088Z,76.16
2018-09-15T07:00:55.125Z,75.39
2018-09-15T07:02:33.419Z,75.70
2018-09-15T07:03:11.448Z,75.51
2018-09-15T07:03:49.353Z,76.60
2018-09-15T07:04:27.315Z,76.51
2018-09-15T07:05:05.273Z,77.34
2018-09-15T07:05:43.206Z,76.80
2018-09-15T07:06:22.044Z,77.67
2018-09-15T07:06:59.902Z,76.54
2018-09-15T07:07:37.963Z,77.85
2018-09-15T07:11:17.688Z,76.99
2018-09-15T07:11:55.547Z,78.08
2018-09-15T07:12:33.531Z,77.96
2018-09-15T07:13:11.700Z,78.06
2018-09-15T07:13:49.549Z,77.69
2018-09-15T07:14:27.351Z,77.11
2018-09-15T07:15:05.164Z,78.49
2018-09-15T07:15:43.110Z,77.71
2018-09-15T07:16:21.105Z,77.30
2018-09-15T07:16:59.759Z,77.35
2018-09-15T07:17:37.741Z,76.64
2018-09-15T07:18:15.706Z,77.50
2018-09-15T07:18:53.681Z,77.27
2018-09-15T07:19:31.923Z,76.93
2018-09-15T07:20:10.339Z,77.54
2018-09-15T07:20:49.836Z,77.73
2018-09-15T07:21:27.678Z,76.97
2018-09-15T07:22:05.527Z,76.19
2018-09-15T07:22:43.392Z,76.75
2018-09-15T07:23:21.258Z,76.95
2018-09-15T07:23:59.204Z,76.84
2018-09-15T07:24:36.964Z,76.99
2018-09-15T07:25:14.782Z,75.59
2018-09-15T07:25:52.686Z,75.87
2018-09-15T07:26:30.646Z,75.97
2018-09-15T07:27:10.428Z,76.54
2018-09-15T07:27:49.112Z,76.01
2018-09-15T07:28:27.341Z,76.93
2018-09-15T07:29:05.250Z,76.60
2018-09-15T07:29:43.200Z,75.90
2018-09-15T07:30:21.215Z,75.80
2018-09-15T07:30:58.992Z,75.20
2018-09-15T07:31:37.017Z,76.33
2018-09-15T07:32:15.175Z,75.98
2018-09-15T07:32:53.080Z,76.01
2018-09-15T07:33:31.024Z,76.18
2018-09-15T07:34:09.165Z,76.52
2018-09-15T07:34:47.071Z,75.43
2018-09-15T07:35:25.033Z,75.64
2018-09-15T07:36:02.947Z,75.90
2018-09-15T07:36:40.878Z,74.49
2018-09-15T07:37:18.759Z,74.50
2018-09-15T07:37:57.078Z,74.76
2018-09-15T07:38:35.016Z,74.16
2018-09-15T07:39:14.370Z,73.65
2018-09-15T07:39:52.192Z,73.90
2018-09-15T07:40:30.260Z,74.92
2018-09-15T07:41:09.042Z,75.07
2018-09-15T07:41:46.896Z,74.79
2018-09-15T07:42:24.896Z,74.48
2018-09-15T07:43:03.080Z,74.19
2018-09-15T07:43:41.122Z,75.03
2018-09-15T07:44:18.927Z,75.24
2018-09-15T07:44:56.866Z,74.77
2018-09-15T07:45:34.683Z,74.54
2018-09-15T07:46:12.669Z,74.11
2018-09-15T07:46:50.540Z,74.38
2018-09-15T07:47:28.402Z,74.36
2018-09-15T07:48:06.444Z,73.82
2018-09-15T07:48:44.504Z,74.12
2018-09-15T07:49:22.472Z,73.95
2018-09-15T07:50:00.421Z,72.78
2018-09-15T07:50:38.354Z,72.57
2018-09-15T07:51:16.641Z,72.47
2018-09-15T07:51:54.455Z,72.91
2018-09-15T07:52:32.282Z,73.02
2018-09-15T07:53:10.169Z,72.83
2018-09-15T07:53:48.197Z,72.51
2018-09-15T07:54:26.081Z,72.73
2018-09-15T07:55:04.128Z,72.66
2018-09-15T07:55:42.893Z,73.59
2018-09-15T07:56:21.104Z,72.98
2018-09-15T07:56:58.952Z,72.70
2018-09-15T07:57:36.905Z,72.93
2018-09-15T07:58:15.099Z,72.76
2018-09-15T07:58:53.061Z,72.97
2018-09-15T07:59:30.960Z,72.54
2018-09-15T08:00:09.102Z,72.32
2018-09-15T08:00:47.241Z,72.49
2018-09-15T08:01:25.179Z,72.75
2018-09-15T08:02:03.508Z,72.62
2018-09-15T08:02:41.411Z,73.92
2018-09-15T08:03:19.328Z,73.59
2018-09-15T08:03:57.377Z,74.21
2018-09-15T08:04:35.416Z,73.95
2018-09-15T08:05:13.278Z,73.88
2018-09-15T08:05:51.305Z,73.78
2018-09-15T08:06:29.189Z,73.24
2018-09-15T08:07:07.252Z,73.87
2018-09-15T08:07:45.079Z,73.68
2018-09-15T08:08:23.038Z,73.46
2018-09-15T08:09:01.036Z,73.63
2018-09-15T08:09:38.979Z,72.92
2018-09-15T08:10:16.916Z,72.61
2018-09-15T08:10:54.827Z,72.63
2018-09-15T08:11:32.900Z,72.15
2018-09-15T08:12:10.020Z,72.25
2018-09-15T08:12:48.066Z,72.47
2018-09-15T08:13:26.031Z,72.49
2018-09-15T08:14:03.963Z,72.15
2018-09-15T08:14:41.840Z,72.10
2018-09-15T08:15:19.686Z,72.55
2018-09-15T08:15:57.594Z,72.20
2018-09-15T08:16:35.587Z,72.02
2018-09-15T08:17:13.535Z,72.33
2018-09-15T08:17:51.552Z,72.79